createdAt,value
2023-05-17T00:00:39.524Z,3.45
2023-05-17T00:01:41.064Z,3.38
2023-05-17T00:02:42.783Z,3.38
2023-05-17T00:03:44.522Z,3.25
2023-05-17T00:04:46.210Z,3.33
2023-05-17T00:05:48.131Z,3.35
2023-05-17T00:06:49.783Z,2.65
2023-05-17T00:07:51.578Z,3.22
2023-05-17T00:08:53.055Z,2.60
2023-05-17T00:09:54.911Z,3.28
2023-05-17T00:10:56.741Z,2.00
2023-05-17T00:11:58.479Z,2.83
2023-05-17T00:13:00.084Z,3.03
2023-05-17T00:14:01.801Z,3.45
2023-05-17T00:15:03.876Z,2.83
2023-05-17T00:16:05.955Z,2.85
2023-05-17T00:17:07.616Z,2.55
2023-05-17T00:18:09.411Z,3.17
2023-05-17T00:19:11.214Z,3.15
2023-05-17T00:20:13.070Z,2.60
2023-05-17T00:21:14.673Z,3.50
2023-05-17T00:22:16.388Z,3.40
2023-05-17T00:23:17.964Z,3.00
2023-05-17T00:24:19.569Z,2.92
2023-05-17T00:25:21.230Z,3.40
2023-05-17T00:26:22.879Z,3.20
2023-05-17T00:27:24.364Z,3.13
2023-05-17T00:28:26.041Z,2.72
2023-05-17T00:29:27.634Z,2.90
2023-05-17T00:30:29.250Z,2.53
2023-05-17T00:31:30.815Z,3.17
2023-05-17T00:32:32.697Z,3.15
2023-05-17T00:33:34.288Z,3.38
2023-05-17T00:34:35.999Z,2.60
2023-05-17T00:35:37.648Z,3.38
2023-05-17T00:36:39.120Z,3.17
2023-05-17T00:37:40.690Z,2.88
2023-05-17T00:38:42.424Z,3.40
2023-05-17T00:39:44.077Z,2.70
2023-05-17T00:40:45.996Z,3.53
2023-05-17T00:41:47.572Z,3.70
2023-05-17T00:42:49.178Z,3.35
2023-05-17T00:43:50.748Z,3.58
2023-05-17T00:44:52.344Z,3.72
2023-05-17T00:45:53.899Z,3.72
2023-05-17T00:46:55.394Z,3.03
2023-05-17T00:47:57.300Z,3.22
2023-05-17T00:48:59.185Z,3.67
2023-05-17T00:50:01.029Z,2.95
2023-05-17T00:51:02.849Z,3.63
2023-05-17T00:52:04.627Z,3.30
2023-05-17T00:53:06.403Z,2.97
2023-05-17T00:54:08.023Z,3.15
2023-05-17T00:55:09.648Z,3.50
2023-05-17T00:56:11.904Z,3.35
2023-05-17T00:57:13.477Z,2.72
2023-05-17T00:58:15.281Z,4.03
2023-05-17T00:59:17.363Z,3.70
2023-05-17T01:00:18.924Z,3.63
2023-05-17T01:01:21.048Z,3.47
2023-05-17T01:02:22.744Z,3.50
2023-05-17T01:03:24.451Z,3.58
2023-05-17T01:04:26.181Z,3.58
2023-05-17T01:05:28.906Z,3.25
2023-05-17T01:06:30.747Z,3.78
2023-05-17T01:07:32.241Z,3.25
2023-05-17T01:08:34.522Z,3.28
2023-05-17T01:09:36.166Z,3.75
2023-05-17T01:10:44.279Z,3.25
2023-05-17T01:11:51.660Z,3.00
2023-05-17T01:13:12.025Z,3.72
2023-05-17T01:14:13.488Z,3.63
2023-05-17T01:15:17.955Z,3.08
2023-05-17T01:16:28.361Z,2.88
2023-05-17T01:17:36.040Z,3.38
2023-05-17T01:18:56.979Z,4.00
2023-05-17T01:20:01.815Z,3.60
2023-05-17T01:21:11.270Z,3.33
2023-05-17T01:22:31.356Z,4.20
2023-05-17T01:23:39.003Z,2.67
2023-05-17T01:24:45.806Z,3.17
2023-05-17T01:25:51.332Z,3.40
2023-05-17T01:26:53.756Z,3.28
2023-05-17T01:27:58.610Z,3.40
2023-05-17T01:29:00.935Z,4.05
2023-05-17T01:30:02.570Z,3.80
2023-05-17T01:31:04.643Z,3.55
2023-05-17T01:32:06.433Z,3.40
2023-05-17T01:33:09.046Z,4.10
2023-05-17T01:34:10.778Z,3.53
2023-05-17T01:35:12.550Z,3.63
2023-05-17T01:36:14.244Z,3.70
2023-05-17T01:37:16.084Z,4.32
2023-05-17T01:38:17.627Z,4.18
2023-05-17T01:39:19.400Z,2.83
2023-05-17T01:40:21.546Z,2.88
2023-05-17T01:41:42.495Z,3.85
2023-05-17T01:42:44.986Z,4.80
2023-05-17T01:44:12.036Z,4.00
2023-05-17T01:45:35.025Z,3.75
2023-05-17T01:46:40.941Z,3.45
2023-05-17T01:47:42.540Z,3.70
2023-05-17T01:48:54.886Z,3.15
2023-05-17T01:49:59.296Z,3.67
2023-05-17T01:51:01.162Z,3.47
2023-05-17T01:52:12.073Z,3.67
2023-05-17T01:53:19.666Z,3.15
2023-05-17T01:54:22.990Z,3.70
2023-05-17T01:55:43.208Z,4.00
2023-05-17T01:56:48.040Z,3.28
2023-05-17T01:57:52.456Z,3.13
2023-05-17T01:58:54.389Z,4.25
2023-05-17T01:59:57.991Z,3.40
2023-05-17T02:01:00.693Z,3.10
2023-05-17T02:02:06.858Z,3.10
2023-05-17T02:03:12.347Z,3.30
2023-05-17T02:04:14.085Z,3.10
2023-05-17T02:05:15.869Z,3.45
2023-05-17T02:06:17.660Z,3.58
2023-05-17T02:07:19.190Z,3.30
2023-05-17T02:08:20.669Z,3.40
2023-05-17T02:09:22.463Z,3.50
2023-05-17T02:10:24.439Z,3.55
2023-05-17T02:11:26.108Z,3.05
2023-05-17T02:12:27.774Z,3.38
2023-05-17T02:13:29.441Z,3.78
2023-05-17T02:14:31.019Z,3.70
2023-05-17T02:15:32.781Z,3.60
2023-05-17T02:16:34.318Z,3.30
2023-05-17T02:17:36.030Z,3.70
2023-05-17T02:18:38.311Z,3.40
2023-05-17T02:19:40.008Z,3.20
2023-05-17T02:20:41.645Z,3.20
2023-05-17T02:21:43.162Z,3.40
2023-05-17T02:22:45.025Z,2.92
2023-05-17T02:23:46.713Z,3.53
2023-05-17T02:24:49.106Z,3.47
2023-05-17T02:25:51.016Z,2.90
2023-05-17T02:26:52.595Z,2.95
2023-05-17T02:27:54.229Z,3.30
2023-05-17T02:28:55.840Z,3.30
2023-05-17T02:29:58.044Z,3.13
2023-05-17T02:30:59.526Z,3.33
2023-05-17T02:32:01.087Z,3.10
2023-05-17T02:33:02.685Z,3.47
2023-05-17T02:34:04.338Z,3.45
2023-05-17T02:35:06.105Z,3.55
2023-05-17T02:36:08.635Z,3.75
2023-05-17T02:37:10.160Z,3.28
2023-05-17T02:38:11.684Z,3.70
2023-05-17T02:39:13.327Z,3.17
2023-05-17T02:40:15.171Z,3.92
2023-05-17T02:41:16.716Z,4.35
2023-05-17T02:42:18.438Z,3.90
2023-05-17T02:43:20.109Z,2.75
2023-05-17T02:44:22.538Z,3.85
2023-05-17T02:45:24.061Z,4.20
2023-05-17T02:46:25.626Z,3.67
2023-05-17T02:47:27.267Z,3.78
2023-05-17T02:48:28.912Z,3.72
2023-05-17T02:49:30.399Z,4.70
2023-05-17T02:50:31.965Z,3.50
2023-05-17T02:51:33.542Z,4.20
2023-05-17T02:52:35.358Z,3.78
2023-05-17T02:53:36.899Z,3.15
2023-05-17T02:54:38.419Z,3.92
2023-05-17T02:55:40.287Z,3.78
2023-05-17T02:56:41.913Z,4.13
2023-05-17T02:57:43.546Z,4.80
2023-05-17T02:58:45.050Z,4.30
2023-05-17T02:59:46.757Z,4.30
2023-05-17T03:00:48.359Z,4.50
2023-05-17T03:01:50.451Z,4.60
2023-05-17T03:02:52.152Z,4.13
2023-05-17T03:03:54.113Z,4.68
2023-05-17T03:04:55.688Z,4.25
2023-05-17T03:06:01.682Z,3.80
2023-05-17T03:07:05.065Z,3.95
2023-05-17T03:08:08.854Z,4.03
2023-05-17T03:09:10.399Z,4.55
2023-05-17T03:10:12.061Z,4.35
2023-05-17T03:11:13.857Z,4.40
2023-05-17T03:12:15.482Z,4.97
2023-05-17T03:13:16.947Z,4.25
2023-05-17T03:14:18.357Z,3.72
2023-05-17T03:15:20.212Z,3.58
2023-05-17T03:16:21.739Z,4.28
2023-05-17T03:17:23.240Z,4.40
2023-05-17T03:18:24.845Z,4.13
2023-05-17T03:19:26.499Z,3.92
2023-05-17T03:20:28.129Z,3.55
2023-05-17T03:21:29.639Z,4.00
2023-05-17T03:22:31.309Z,3.30
2023-05-17T03:23:32.891Z,3.83
2023-05-17T03:24:34.478Z,4.20
2023-05-17T03:25:36.038Z,5.05
2023-05-17T03:26:37.627Z,4.20
2023-05-17T03:27:39.185Z,3.83
2023-05-17T03:28:40.851Z,4.18
2023-05-17T03:29:42.509Z,4.53
2023-05-17T03:30:44.093Z,4.30
2023-05-17T03:31:46.034Z,4.03
2023-05-17T03:32:47.746Z,3.80
2023-05-17T03:33:49.465Z,3.60
2023-05-17T03:34:51.279Z,4.00
2023-05-17T03:35:52.825Z,4.97
2023-05-17T03:36:54.543Z,3.72
2023-05-17T03:37:56.051Z,3.72
2023-05-17T03:38:57.655Z,3.90
2023-05-17T03:39:59.389Z,4.15
2023-05-17T03:41:01.025Z,3.75
2023-05-17T03:42:03.655Z,4.22
2023-05-17T03:43:05.791Z,3.78
2023-05-17T03:44:07.429Z,4.15
2023-05-17T03:45:09.656Z,3.33
2023-05-17T03:46:11.672Z,3.88
2023-05-17T03:47:13.325Z,3.70
2023-05-17T03:48:14.893Z,4.20
2023-05-17T03:49:16.503Z,3.60
2023-05-17T03:50:18.092Z,3.90
2023-05-17T03:51:19.755Z,3.70
2023-05-17T03:52:21.239Z,3.80
2023-05-17T03:53:22.872Z,4.15
2023-05-17T03:54:24.362Z,3.97
2023-05-17T03:55:25.910Z,4.43
2023-05-17T03:56:27.671Z,3.75
2023-05-17T03:57:29.375Z,4.05
2023-05-17T03:58:30.948Z,4.85
2023-05-17T03:59:32.450Z,4.18
2023-05-17T04:00:34.216Z,4.95
2023-05-17T04:01:35.940Z,4.25
2023-05-17T04:02:37.753Z,4.20
2023-05-17T04:03:39.889Z,4.20
2023-05-17T04:04:41.753Z,4.03
2023-05-17T04:05:45.605Z,4.00
2023-05-17T04:06:47.110Z,3.95
2023-05-17T04:07:48.782Z,4.90
2023-05-17T04:08:51.211Z,5.05
2023-05-17T04:09:53.472Z,4.35
2023-05-17T04:10:55.141Z,4.82
2023-05-17T04:11:56.853Z,4.68
2023-05-17T04:12:58.343Z,3.78
2023-05-17T04:14:00.184Z,4.00
2023-05-17T04:15:01.994Z,4.55
2023-05-17T04:16:03.711Z,4.30
2023-05-17T04:17:05.407Z,4.13
2023-05-17T04:18:06.998Z,3.92
2023-05-17T04:19:08.858Z,3.92
2023-05-17T04:20:11.183Z,4.72
2023-05-17T04:21:13.015Z,5.25
2023-05-17T04:22:14.528Z,5.07
2023-05-17T04:23:16.081Z,5.00
2023-05-17T04:24:17.763Z,4.50
2023-05-17T04:25:19.515Z,5.47
2023-05-17T04:26:21.007Z,4.57
2023-05-17T04:27:22.669Z,4.18
2023-05-17T04:28:24.584Z,4.70
2023-05-17T04:29:26.566Z,4.40
2023-05-17T04:30:28.529Z,4.45
2023-05-17T04:31:31.941Z,4.65
2023-05-17T04:32:34.300Z,4.72
2023-05-17T04:33:37.004Z,4.03
2023-05-17T04:34:38.669Z,4.57
2023-05-17T04:35:41.787Z,3.55
2023-05-17T04:36:43.303Z,3.45
2023-05-17T04:37:44.916Z,3.95
2023-05-17T04:38:47.282Z,3.88
2023-05-17T04:39:48.854Z,3.42
2023-05-17T04:40:50.749Z,3.70
2023-05-17T04:41:52.294Z,3.67
2023-05-17T04:42:53.895Z,3.60
2023-05-17T04:43:55.715Z,3.55
2023-05-17T04:44:57.862Z,3.30
2023-05-17T04:46:00.270Z,4.07
2023-05-17T04:47:02.301Z,4.00
2023-05-17T04:48:04.330Z,4.28
2023-05-17T04:49:06.031Z,3.92
2023-05-17T04:50:07.791Z,3.75
2023-05-17T04:51:09.298Z,3.80
2023-05-17T04:52:11.135Z,3.40
2023-05-17T04:53:12.673Z,3.72
2023-05-17T04:54:14.256Z,3.65
2023-05-17T04:55:15.874Z,3.25
2023-05-17T04:56:17.548Z,3.95
2023-05-17T04:57:19.119Z,3.03
2023-05-17T04:58:20.718Z,3.50
2023-05-17T04:59:22.303Z,3.45
2023-05-17T05:00:23.992Z,3.58
2023-05-17T05:01:25.590Z,3.25
2023-05-17T05:02:27.242Z,3.25
2023-05-17T05:03:28.853Z,4.10
2023-05-17T05:04:30.632Z,3.33
2023-05-17T05:05:32.249Z,3.17
2023-05-17T05:06:34.128Z,3.00
2023-05-17T05:07:35.832Z,3.33
2023-05-17T05:08:37.828Z,2.90
2023-05-17T05:09:39.371Z,3.40
2023-05-17T05:10:40.949Z,3.10
2023-05-17T05:11:42.703Z,3.15
2023-05-17T05:12:44.920Z,3.83
2023-05-17T05:13:46.509Z,3.13
2023-05-17T05:14:48.121Z,3.10
2023-05-17T05:15:49.710Z,3.17
2023-05-17T05:16:51.344Z,3.50
2023-05-17T05:17:53.186Z,3.38
2023-05-17T05:18:55.015Z,3.67
2023-05-17T05:19:56.836Z,3.65
2023-05-17T05:20:59.329Z,3.50
2023-05-17T05:22:01.000Z,3.53
2023-05-17T05:23:05.877Z,3.30
2023-05-17T05:24:07.874Z,3.20
2023-05-17T05:25:09.704Z,3.03
2023-05-17T05:26:11.346Z,3.22
2023-05-17T05:27:12.851Z,3.17
2023-05-17T05:28:14.575Z,3.50
2023-05-17T05:29:16.665Z,3.67
2023-05-17T05:30:22.313Z,3.47
2023-05-17T05:31:24.126Z,3.83
2023-05-17T05:32:25.676Z,3.00
2023-05-17T05:33:27.604Z,3.15
2023-05-17T05:34:29.557Z,4.47
2023-05-17T05:35:31.398Z,3.17
2023-05-17T05:36:33.413Z,2.80
2023-05-17T05:37:35.051Z,3.35
2023-05-17T05:38:37.256Z,4.35
2023-05-17T05:39:38.801Z,3.95
2023-05-17T05:40:40.345Z,3.72
2023-05-17T05:41:41.918Z,3.72
2023-05-17T05:42:43.460Z,3.78
2023-05-17T05:43:44.976Z,3.67
2023-05-17T05:44:46.605Z,2.85
2023-05-17T05:45:48.425Z,3.20
2023-05-17T05:46:50.065Z,3.70
2023-05-17T05:47:51.826Z,3.10
2023-05-17T05:48:53.529Z,3.17
2023-05-17T05:49:55.200Z,3.15
2023-05-17T05:50:56.933Z,2.72
2023-05-17T05:51:58.475Z,2.90
2023-05-17T05:53:14.555Z,3.35
2023-05-17T05:54:19.604Z,2.90
2023-05-17T05:55:21.189Z,3.42
2023-05-17T05:56:24.653Z,3.15
2023-05-17T05:57:26.278Z,3.15
2023-05-17T05:58:27.911Z,3.70
2023-05-17T05:59:29.692Z,3.65
2023-05-17T06:00:31.582Z,3.10
2023-05-17T06:01:34.125Z,3.30
2023-05-17T06:02:36.103Z,3.10
2023-05-17T06:03:37.702Z,3.23
2023-05-17T06:04:45.387Z,3.40
2023-05-17T06:05:47.883Z,2.97
2023-05-17T06:06:49.738Z,3.13
2023-05-17T06:07:51.710Z,3.03
2023-05-17T06:08:53.280Z,3.10
2023-05-17T06:09:54.809Z,3.00
2023-05-17T06:10:56.428Z,3.03
2023-05-17T06:11:58.120Z,3.77
2023-05-17T06:12:59.779Z,3.60
2023-05-17T06:14:01.607Z,3.73
2023-05-17T06:15:03.853Z,3.50
2023-05-17T06:16:06.149Z,3.27
2023-05-17T06:17:07.859Z,3.20
2023-05-17T06:18:09.503Z,3.20
2023-05-17T06:19:12.515Z,3.23
2023-05-17T06:20:15.118Z,4.80
2023-05-17T06:21:18.591Z,3.40
2023-05-17T06:22:20.279Z,2.97
2023-05-17T06:23:21.872Z,3.10
2023-05-17T06:24:23.635Z,3.23
2023-05-17T06:25:25.137Z,3.63
2023-05-17T06:26:27.623Z,3.10
2023-05-17T06:27:31.261Z,3.37
2023-05-17T06:28:32.808Z,3.60
2023-05-17T06:29:34.485Z,3.80
2023-05-17T06:30:36.625Z,3.27
2023-05-17T06:31:38.154Z,3.20
2023-05-17T06:32:39.888Z,3.10
2023-05-17T06:33:41.498Z,2.97
2023-05-17T06:34:43.143Z,3.20
2023-05-17T06:35:55.390Z,3.03
2023-05-17T06:36:58.371Z,3.43
2023-05-17T06:37:59.933Z,3.40
2023-05-17T06:39:01.804Z,4.03
2023-05-17T06:40:14.941Z,3.07
2023-05-17T06:41:17.461Z,3.37
2023-05-17T06:42:19.219Z,2.90
2023-05-17T06:43:21.072Z,3.63
2023-05-17T06:44:22.958Z,2.80
2023-05-17T06:45:24.696Z,3.40
2023-05-17T06:46:26.363Z,4.10
2023-05-17T06:47:28.124Z,3.03
2023-05-17T06:48:29.715Z,2.90
2023-05-17T06:49:31.693Z,2.97
2023-05-17T06:50:33.360Z,2.93
2023-05-17T06:51:35.069Z,2.87
2023-05-17T06:52:36.759Z,2.53
2023-05-17T06:53:38.343Z,2.87
2023-05-17T06:54:39.883Z,2.90
2023-05-17T06:55:41.852Z,2.80
2023-05-17T06:56:43.349Z,2.37
2023-05-17T06:57:44.885Z,2.67
2023-05-17T06:58:46.685Z,2.93
2023-05-17T06:59:48.368Z,3.23
2023-05-17T07:00:50.225Z,3.87
2023-05-17T07:01:51.810Z,3.13
2023-05-17T07:02:53.424Z,3.10
2023-05-17T07:03:55.472Z,2.90
2023-05-17T07:04:57.314Z,2.80
2023-05-17T07:05:59.021Z,3.50
2023-05-17T07:07:00.591Z,3.70
2023-05-17T07:08:02.231Z,3.53
2023-05-17T07:09:03.888Z,3.00
2023-05-17T07:10:06.561Z,3.10
2023-05-17T07:11:08.236Z,3.50
2023-05-17T07:12:09.769Z,2.70
2023-05-17T07:13:11.783Z,2.53
2023-05-17T07:14:13.380Z,3.47
2023-05-17T07:15:15.038Z,2.57
2023-05-17T07:16:16.752Z,3.53
2023-05-17T07:17:18.360Z,3.20
2023-05-17T07:18:20.150Z,2.40
2023-05-17T07:19:22.031Z,3.10
2023-05-17T07:20:23.729Z,3.40
2023-05-17T07:21:25.710Z,3.20
2023-05-17T07:22:27.312Z,3.97
2023-05-17T07:23:29.085Z,3.57
2023-05-17T07:24:30.929Z,3.87
2023-05-17T07:25:32.528Z,3.27
2023-05-17T07:26:34.138Z,3.43
2023-05-17T07:27:35.982Z,3.47
2023-05-17T07:28:37.659Z,2.67
2023-05-17T07:29:39.465Z,3.20
2023-05-17T07:30:41.090Z,3.50
2023-05-17T07:31:45.494Z,2.80
2023-05-17T07:32:47.309Z,3.10
2023-05-17T07:33:49.379Z,3.67
2023-05-17T07:34:51.168Z,3.47
2023-05-17T07:35:52.734Z,3.63
2023-05-17T07:36:54.272Z,3.97
2023-05-17T07:37:55.882Z,3.70
2023-05-17T07:38:58.118Z,3.63
2023-05-17T07:40:00.539Z,4.27
2023-05-17T07:41:02.591Z,4.07
2023-05-17T07:42:05.645Z,3.43
2023-05-17T07:43:07.572Z,3.20
2023-05-17T07:44:09.217Z,3.50
2023-05-17T07:45:11.389Z,3.40
2023-05-17T07:46:13.038Z,2.67
2023-05-17T07:47:14.937Z,3.40
2023-05-17T07:48:16.835Z,3.87
2023-05-17T07:49:18.613Z,3.10
2023-05-17T07:50:20.210Z,3.37
2023-05-17T07:51:22.113Z,4.23
2023-05-17T07:52:23.763Z,3.20
2023-05-17T07:53:25.263Z,3.60
2023-05-17T07:54:29.424Z,4.17
2023-05-17T07:55:31.182Z,3.40
2023-05-17T07:56:33.737Z,2.70
2023-05-17T07:57:35.548Z,3.30
2023-05-17T07:58:37.454Z,4.30
2023-05-17T07:59:39.003Z,4.10
2023-05-17T08:00:42.895Z,3.60
2023-05-17T08:01:44.401Z,3.43
2023-05-17T08:02:49.086Z,3.67
2023-05-17T08:03:50.721Z,3.67
2023-05-17T08:04:52.484Z,3.90
2023-05-17T08:05:54.302Z,3.83
2023-05-17T08:06:55.920Z,3.80
2023-05-17T08:08:00.304Z,3.47
2023-05-17T08:09:02.018Z,3.13
2023-05-17T08:10:04.247Z,3.53
2023-05-17T08:11:05.976Z,2.60
2023-05-17T08:12:07.547Z,3.30
2023-05-17T08:13:09.424Z,3.40
2023-05-17T08:14:11.724Z,3.23
2023-05-17T08:15:13.455Z,3.43
2023-05-17T08:16:15.271Z,3.60
2023-05-17T08:17:16.897Z,4.13
2023-05-17T08:18:18.525Z,3.30
2023-05-17T08:19:20.393Z,3.20
2023-05-17T08:20:22.069Z,3.23
2023-05-17T08:21:24.580Z,3.30
2023-05-17T08:22:26.488Z,3.07
2023-05-17T08:23:28.010Z,2.60
2023-05-17T08:24:29.593Z,3.60
2023-05-17T08:25:31.619Z,3.23
2023-05-17T08:26:33.336Z,3.00
2023-05-17T08:27:37.841Z,2.60
2023-05-17T08:28:39.779Z,2.83
2023-05-17T08:29:41.690Z,3.50
2023-05-17T08:30:43.553Z,2.80
2023-05-17T08:31:45.513Z,2.80
2023-05-17T08:32:50.505Z,3.27
2023-05-17T08:33:54.840Z,2.80
2023-05-17T08:34:57.130Z,3.03
2023-05-17T08:36:01.392Z,2.90
2023-05-17T08:37:03.489Z,3.03
2023-05-17T08:38:05.043Z,2.70
2023-05-17T08:39:08.441Z,2.70
2023-05-17T08:40:10.093Z,2.70
2023-05-17T08:41:13.531Z,3.93
2023-05-17T08:42:16.475Z,3.93
2023-05-17T08:43:18.178Z,3.53
2023-05-17T08:44:20.619Z,3.60
2023-05-17T08:45:22.386Z,3.10
2023-05-17T08:46:24.991Z,2.97
2023-05-17T08:47:29.973Z,3.47
2023-05-17T08:48:31.863Z,3.67
2023-05-17T08:49:34.345Z,3.60
2023-05-17T08:50:38.298Z,3.30
2023-05-17T08:51:40.058Z,3.10
2023-05-17T08:52:44.826Z,2.90
2023-05-17T08:53:47.013Z,3.60
2023-05-17T08:54:48.562Z,3.07
2023-05-17T08:55:50.902Z,3.13
2023-05-17T08:56:54.517Z,3.90
2023-05-17T08:57:56.223Z,2.73
2023-05-17T08:58:58.409Z,3.00
2023-05-17T09:00:06.836Z,2.63
2023-05-17T09:01:09.369Z,2.70
2023-05-17T09:02:11.325Z,3.27
2023-05-17T09:03:18.355Z,3.47
2023-05-17T09:04:21.288Z,3.03
2023-05-17T09:05:23.295Z,3.23
2023-05-17T09:06:25.049Z,3.27
2023-05-17T09:07:27.098Z,2.77
2023-05-17T09:08:28.924Z,3.43
2023-05-17T09:09:30.496Z,2.83
2023-05-17T09:10:32.018Z,3.40
2023-05-17T09:11:33.915Z,3.00
2023-05-17T09:12:35.810Z,3.10
2023-05-17T09:13:37.476Z,4.00
2023-05-17T09:14:39.086Z,3.50
2023-05-17T09:15:44.143Z,4.00
2023-05-17T09:16:45.848Z,3.57
2023-05-17T09:17:54.091Z,3.30
2023-05-17T09:18:57.097Z,3.20
2023-05-17T09:19:59.422Z,2.93
2023-05-17T09:21:04.859Z,2.90
2023-05-17T09:22:07.424Z,3.00
2023-05-17T09:23:10.919Z,3.77
2023-05-17T09:24:12.963Z,3.50
2023-05-17T09:25:19.494Z,2.67
2023-05-17T09:26:22.100Z,3.50
2023-05-17T09:27:23.573Z,3.13
2023-05-17T09:28:29.379Z,4.23
2023-05-17T09:29:32.438Z,3.67
2023-05-17T09:30:34.633Z,3.20
2023-05-17T09:31:36.545Z,3.67
2023-05-17T09:32:43.581Z,3.70
2023-05-17T09:33:46.841Z,4.00
2023-05-17T09:34:48.666Z,3.80
2023-05-17T09:35:50.250Z,3.40
2023-05-17T09:36:52.267Z,4.40
2023-05-17T09:37:53.995Z,4.50
2023-05-17T09:38:56.508Z,3.43
2023-05-17T09:39:58.126Z,3.80
2023-05-17T09:41:02.712Z,4.30
2023-05-17T09:42:04.754Z,3.67
2023-05-17T09:43:06.404Z,3.70
2023-05-17T09:44:09.639Z,4.03
2023-05-17T09:45:11.147Z,4.40
2023-05-17T09:46:13.077Z,3.90
2023-05-17T09:47:25.021Z,3.23
2023-05-17T09:48:28.377Z,3.40
2023-05-17T09:49:30.098Z,3.97
2023-05-17T09:50:33.072Z,3.70
2023-05-17T09:51:35.095Z,3.67
2023-05-17T09:52:37.568Z,4.10
2023-05-17T09:53:40.916Z,3.70
2023-05-17T09:54:42.465Z,4.10
2023-05-17T09:55:48.032Z,4.00
2023-05-17T09:56:55.797Z,4.80
2023-05-17T09:58:02.561Z,4.70
2023-05-17T09:59:04.529Z,3.83
2023-05-17T10:00:12.369Z,4.03
2023-05-17T10:01:14.804Z,5.00
2023-05-17T10:02:23.552Z,3.90
2023-05-17T10:03:27.269Z,3.80
2023-05-17T10:04:30.659Z,4.50
2023-05-17T10:05:32.970Z,3.43
2023-05-17T10:06:46.399Z,3.67
2023-05-17T10:07:50.890Z,3.80
2023-05-17T10:08:56.006Z,4.17
2023-05-17T10:09:58.496Z,4.13
2023-05-17T10:11:03.587Z,5.43
2023-05-17T10:12:06.057Z,4.43
2023-05-17T10:13:09.357Z,4.97
2023-05-17T10:14:11.132Z,5.20
2023-05-17T10:15:13.463Z,5.77
2023-05-17T10:16:15.888Z,5.47
2023-05-17T10:17:18.159Z,4.40
2023-05-17T10:18:20.869Z,5.50
2023-05-17T10:19:23.381Z,4.83
2023-05-17T10:20:25.258Z,4.40
2023-05-17T10:21:28.534Z,5.00
2023-05-17T10:22:30.442Z,4.23
2023-05-17T10:23:32.830Z,4.07
2023-05-17T10:24:35.618Z,5.10
2023-05-17T10:25:37.879Z,5.10
2023-05-17T10:26:40.192Z,4.63
2023-05-17T10:27:42.022Z,4.87
2023-05-17T10:28:44.522Z,4.93
2023-05-17T10:29:49.222Z,4.67
2023-05-17T10:30:53.641Z,4.90
2023-05-17T10:31:55.736Z,4.97
2023-05-17T10:32:58.499Z,5.30
2023-05-17T10:34:06.803Z,5.70
2023-05-17T10:35:11.750Z,5.80
2023-05-17T10:36:17.453Z,5.60
2023-05-17T10:37:19.410Z,4.43
2023-05-17T10:38:24.034Z,5.00
2023-05-17T10:39:28.055Z,5.10
2023-05-17T10:40:30.881Z,5.63
2023-05-17T10:41:33.927Z,5.80
2023-05-17T10:42:36.072Z,6.80
2023-05-17T10:43:39.099Z,5.77
2023-05-17T10:44:41.003Z,4.77
2023-05-17T10:45:42.808Z,4.80
2023-05-17T10:46:54.821Z,5.63
2023-05-17T10:47:58.817Z,6.43
2023-05-17T10:49:01.630Z,5.50
2023-05-17T10:50:09.224Z,5.93
2023-05-17T10:51:11.148Z,5.37
2023-05-17T10:52:13.911Z,5.40
2023-05-17T10:53:15.665Z,5.90
2023-05-17T10:54:20.254Z,4.93
2023-05-17T10:55:23.125Z,5.03
2023-05-17T10:56:24.837Z,5.43
2023-05-17T10:57:49.195Z,4.87
2023-05-17T10:59:11.836Z,5.97
2023-05-17T11:00:19.770Z,5.50
2023-05-17T11:01:42.336Z,4.93
2023-05-17T11:02:44.555Z,4.90
2023-05-17T11:03:48.471Z,4.90
2023-05-17T11:04:53.708Z,4.93
2023-05-17T11:06:22.028Z,4.03
2023-05-17T11:07:27.397Z,3.73
2023-05-17T11:08:29.075Z,4.37
2023-05-17T11:09:32.244Z,5.30
2023-05-17T11:10:36.117Z,4.47
2023-05-17T11:11:37.734Z,4.70
2023-05-17T11:12:43.790Z,5.07
2023-05-17T11:13:46.718Z,5.43
2023-05-17T11:14:49.203Z,5.20
2023-05-17T11:16:07.770Z,5.10
2023-05-17T11:17:15.751Z,4.53
2023-05-17T11:18:29.554Z,5.27
2023-05-17T11:19:32.420Z,5.57
2023-05-17T11:20:35.106Z,3.83
2023-05-17T11:21:45.249Z,4.50
2023-05-17T11:22:49.746Z,5.10
2023-05-17T11:23:55.377Z,4.87
2023-05-17T11:24:57.500Z,4.90
2023-05-17T11:26:16.107Z,4.03
2023-05-17T11:27:18.989Z,4.73
2023-05-17T11:28:22.200Z,3.43
2023-05-17T11:29:28.496Z,3.87
2023-05-17T11:30:31.498Z,4.80
2023-05-17T11:31:34.045Z,4.30
2023-05-17T11:32:35.787Z,4.83
2023-05-17T11:33:44.849Z,4.73
2023-05-17T11:34:52.060Z,4.40
2023-05-17T11:35:54.408Z,3.67
2023-05-17T11:36:56.465Z,3.90
2023-05-17T11:38:14.702Z,4.53
2023-05-17T11:39:19.047Z,4.53
2023-05-17T11:40:28.280Z,3.73
2023-05-17T11:41:30.281Z,4.83
2023-05-17T11:42:32.221Z,4.10
2023-05-17T11:43:35.307Z,3.50
2023-05-17T11:44:37.640Z,3.90
2023-05-17T11:45:42.286Z,4.07
2023-05-17T11:46:44.780Z,3.70
2023-05-17T11:47:48.691Z,3.67
2023-05-17T11:48:51.705Z,3.13
2023-05-17T11:49:56.417Z,3.27
2023-05-17T11:51:01.368Z,4.13
2023-05-17T11:52:07.307Z,3.47
2023-05-17T11:53:10.067Z,3.20
2023-05-17T11:54:12.714Z,3.33
2023-05-17T11:55:16.123Z,3.30
2023-05-17T11:56:19.345Z,4.17
2023-05-17T11:57:23.237Z,3.47
2023-05-17T11:58:25.945Z,3.53
2023-05-17T11:59:27.584Z,3.40
2023-05-17T12:00:29.910Z,3.50
2023-05-17T12:01:44.563Z,3.63
2023-05-17T12:02:46.115Z,4.70
2023-05-17T12:03:55.382Z,4.50
2023-05-17T12:04:57.152Z,7.87
2023-05-17T12:06:11.816Z,5.13
2023-05-17T12:07:13.426Z,4.67
2023-05-17T12:08:16.278Z,4.70
2023-05-17T12:09:17.998Z,4.60
2023-05-17T12:10:19.590Z,4.57
2023-05-17T12:11:22.126Z,4.30
2023-05-17T12:12:23.821Z,5.03
2023-05-17T12:13:28.322Z,3.80
2023-05-17T12:14:30.440Z,3.40
2023-05-17T12:15:32.418Z,3.80
2023-05-17T12:16:36.305Z,4.07
2023-05-17T12:17:40.418Z,3.47
2023-05-17T12:18:43.102Z,3.67
2023-05-17T12:19:44.962Z,4.37
2023-05-17T12:20:53.515Z,3.27
2023-05-17T12:22:05.322Z,4.03
2023-05-17T12:23:07.261Z,4.07
2023-05-17T12:24:08.896Z,3.63
2023-05-17T12:25:18.978Z,4.93
2023-05-17T12:26:21.863Z,4.60
2023-05-17T12:27:31.438Z,4.37
2023-05-17T12:28:33.825Z,4.60
2023-05-17T12:29:35.504Z,4.80
2023-05-17T12:30:37.103Z,5.00
2023-05-17T12:31:40.450Z,4.77
2023-05-17T12:32:42.369Z,4.73
2023-05-17T12:33:44.876Z,4.80
2023-05-17T12:34:46.811Z,3.67
2023-05-17T12:35:48.444Z,3.93
2023-05-17T12:36:50.576Z,4.27
2023-05-17T12:37:52.172Z,3.60
2023-05-17T12:38:54.164Z,4.33
2023-05-17T12:39:57.846Z,4.60
2023-05-17T12:41:01.458Z,5.33
2023-05-17T12:42:03.499Z,5.00
2023-05-17T12:43:05.478Z,4.73
2023-05-17T12:44:15.412Z,4.57
2023-05-17T12:45:17.930Z,3.60
2023-05-17T12:46:22.326Z,4.40
2023-05-17T12:47:26.092Z,4.50
2023-05-17T12:48:27.721Z,3.80
2023-05-17T12:49:29.557Z,4.27
2023-05-17T12:50:31.581Z,3.63
2023-05-17T12:51:46.016Z,4.33
2023-05-17T12:52:48.013Z,4.90
2023-05-17T12:53:51.370Z,4.63
2023-05-17T12:54:53.039Z,4.70
2023-05-17T12:55:57.564Z,5.70
2023-05-17T12:56:59.279Z,4.80
2023-05-17T12:58:02.979Z,4.60
2023-05-17T12:59:10.893Z,4.20
2023-05-17T13:00:12.801Z,4.40
2023-05-17T13:01:14.763Z,4.73
2023-05-17T13:02:17.709Z,4.40
2023-05-17T13:03:19.693Z,4.80
2023-05-17T13:04:28.112Z,3.47
2023-05-17T13:05:29.729Z,4.57
2023-05-17T13:06:46.856Z,3.40
2023-05-17T13:07:48.720Z,5.33
2023-05-17T13:08:58.478Z,4.63
2023-05-17T13:10:00.094Z,4.57
2023-05-17T13:11:28.275Z,4.20
2023-05-17T13:12:29.843Z,4.00
2023-05-17T13:13:33.024Z,4.53
2023-05-17T13:14:34.598Z,3.80
2023-05-17T13:15:36.172Z,3.93
2023-05-17T13:16:38.536Z,4.37
2023-05-17T13:17:44.826Z,3.60
2023-05-17T13:18:47.484Z,4.10
2023-05-17T13:19:49.538Z,4.37
2023-05-17T13:20:51.463Z,4.10
2023-05-17T13:21:53.135Z,3.57
2023-05-17T13:22:54.885Z,3.80
2023-05-17T13:23:56.611Z,4.27
2023-05-17T13:24:58.180Z,3.47
2023-05-17T13:25:59.738Z,3.53
2023-05-17T13:27:01.967Z,4.87
2023-05-17T13:28:03.738Z,3.97
2023-05-17T13:29:05.192Z,3.90
2023-05-17T13:30:07.264Z,3.07
2023-05-17T13:31:09.221Z,4.63
2023-05-17T13:32:12.046Z,4.07
2023-05-17T13:33:13.730Z,3.30
2023-05-17T13:34:15.516Z,4.73
2023-05-17T13:35:17.733Z,4.00
2023-05-17T13:36:19.260Z,4.30
2023-05-17T13:37:21.587Z,3.17
2023-05-17T13:38:23.219Z,3.40
2023-05-17T13:39:24.810Z,3.87
2023-05-17T13:40:26.539Z,3.90
2023-05-17T13:41:28.253Z,3.50
2023-05-17T13:42:30.082Z,4.00
2023-05-17T13:43:31.937Z,4.20
2023-05-17T13:44:33.582Z,3.97
2023-05-17T13:45:35.612Z,4.07
2023-05-17T13:46:37.330Z,5.57
2023-05-17T13:47:39.111Z,4.37
2023-05-17T13:48:42.823Z,6.00
2023-05-17T13:49:44.600Z,6.17
2023-05-17T13:50:46.178Z,5.67
2023-05-17T13:51:47.814Z,5.07
2023-05-17T13:52:49.532Z,4.63
2023-05-17T13:53:51.395Z,4.67
2023-05-17T13:54:53.012Z,5.67
2023-05-17T13:55:54.549Z,5.33
2023-05-17T13:56:57.524Z,6.03
2023-05-17T13:57:59.455Z,4.80
2023-05-17T13:59:01.233Z,4.00